sensor_id;sensor_type;location;lat;lon;timestamp;pressure;altitude;pressure_sealevel;temperature;humidity
63115;BME280;49208;50.874;6.466;2023-05-24T06:02:49;101267.56;;;15.62;68.90
63115;BME280;49208;50.874;6.466;2023-05-24T06:05:16;101265.56;;;16.27;65.90
63115;BME280;49208;50.874;6.466;2023-05-24T06:07:42;101268.00;;;16.71;61.90
63115;BME280;49208;50.874;6.466;2023-05-24T06:10:07;101265.34;;;17.07;60.83
63115;BME280;49208;50.874;6.466;2023-05-24T06:12:33;101264.91;;;17.34;59.04
63115;BME280;49208;50.874;6.466;2023-05-24T06:14:58;101262.78;;;17.23;59.75
63115;BME280;49208;50.874;6.466;2023-05-24T06:17:23;101261.03;;;17.57;60.85
63115;BME280;49208;50.874;6.466;2023-05-24T06:19:49;101263.66;;;17.93;54.76
63115;BME280;49208;50.874;6.466;2023-05-24T06:22:18;101263.22;;;18.01;55.51
63115;BME280;49208;50.874;6.466;2023-05-24T06:24:43;101270.06;;;17.73;57.50
63115;BME280;49208;50.874;6.466;2023-05-24T06:27:08;101267.53;;;17.70;56.16
63115;BME280;49208;50.874;6.466;2023-05-24T06:29:34;101264.84;;;17.70;57.52
63115;BME280;49208;50.874;6.466;2023-05-24T06:31:59;101253.09;;;18.55;56.59
63115;BME280;49208;50.874;6.466;2023-05-24T06:34:25;101261.41;;;19.30;52.71
63115;BME280;49208;50.874;6.466;2023-05-24T06:36:51;101257.06;;;19.88;49.36
63115;BME280;49208;50.874;6.466;2023-05-24T06:39:17;101253.88;;;20.39;50.59
63115;BME280;49208;50.874;6.466;2023-05-24T06:41:43;101250.28;;;20.67;46.12
63115;BME280;49208;50.874;6.466;2023-05-24T06:44:10;101255.56;;;21.10;50.29
63115;BME280;49208;50.874;6.466;2023-05-24T06:46:35;101252.06;;;21.63;48.46
63115;BME280;49208;50.874;6.466;2023-05-24T06:49:01;101242.09;;;21.89;48.29
63115;BME280;49208;50.874;6.466;2023-05-24T06:51:27;101243.59;;;21.93;42.32
63115;BME280;49208;50.874;6.466;2023-05-24T06:53:52;101239.16;;;22.05;44.30
63115;BME280;49208;50.874;6.466;2023-05-24T06:56:18;101249.91;;;21.40;43.87
63115;BME280;49208;50.874;6.466;2023-05-24T06:58:43;101256.88;;;20.63;47.78
63115;BME280;49208;50.874;6.466;2023-05-24T07:01:10;101254.84;;;20.52;48.97
63115;BME280;49208;50.874;6.466;2023-05-24T07:03:36;101263.56;;;20.85;48.13
63115;BME280;49208;50.874;6.466;2023-05-24T07:06:01;101265.66;;;20.38;47.01
63115;BME280;49208;50.874;6.466;2023-05-24T07:08:28;101264.06;;;19.46;49.06
63115;BME280;49208;50.874;6.466;2023-05-24T07:10:53;101269.25;;;18.40;50.55
63115;BME280;49208;50.874;6.466;2023-05-24T07:13:20;101275.34;;;17.23;50.72
63115;BME280;49208;50.874;6.466;2023-05-24T07:15:45;101288.31;;;16.39;57.06
63115;BME280;49208;50.874;6.466;2023-05-24T07:18:11;101292.56;;;15.84;57.86
63115;BME280;49208;50.874;6.466;2023-05-24T07:20:37;101295.38;;;15.81;60.28
63115;BME280;49208;50.874;6.466;2023-05-24T07:23:02;101283.75;;;15.81;61.02
63115;BME280;49208;50.874;6.466;2023-05-24T07:25:28;101286.94;;;15.68;61.30
63115;BME280;49208;50.874;6.466;2023-05-24T07:27:54;101284.78;;;15.78;63.06
63115;BME280;49208;50.874;6.466;2023-05-24T07:30:19;101293.28;;;16.08;61.15
63115;BME280;49208;50.874;6.466;2023-05-24T07:32:45;101283.47;;;16.07;61.51
63115;BME280;49208;50.874;6.466;2023-05-24T07:35:11;101286.16;;;16.66;56.12
63115;BME280;49208;50.874;6.466;2023-05-24T07:37:40;101283.47;;;16.85;57.72
63115;BME280;49208;50.874;6.466;2023-05-24T07:40:06;101277.19;;;17.57;58.93
63115;BME280;49208;50.874;6.466;2023-05-24T07:42:35;101282.59;;;18.74;54.47
63115;BME280;49208;50.874;6.466;2023-05-24T07:45:01;101277.56;;;19.46;47.91
63115;BME280;49208;50.874;6.466;2023-05-24T07:47:26;101280.22;;;20.35;46.76
63115;BME280;49208;50.874;6.466;2023-05-24T07:49:52;101284.50;;;19.50;43.15
63115;BME280;49208;50.874;6.466;2023-05-24T07:52:17;101285.75;;;18.33;44.19
63115;BME280;49208;50.874;6.466;2023-05-24T07:54:42;101292.63;;;17.00;48.61
63115;BME280;49208;50.874;6.466;2023-05-24T07:57:08;101294.13;;;17.05;52.83
63115;BME280;49208;50.874;6.466;2023-05-24T07:59:33;101290.88;;;17.52;52.05
63115;BME280;49208;50.874;6.466;2023-05-24T08:01:59;101286.50;;;17.32;50.29
63115;BME280;49208;50.874;6.466;2023-05-24T08:04:29;101297.72;;;17.06;53.46
63115;BME280;49208;50.874;6.466;2023-05-24T08:06:55;101290.38;;;16.52;54.23
63115;BME280;49208;50.874;6.466;2023-05-24T08:09:22;101296.03;;;16.65;54.00
63115;BME280;49208;50.874;6.466;2023-05-24T08:11:47;101295.31;;;17.36;55.57
63115;BME280;49208;50.874;6.466;2023-05-24T08:14:13;101285.56;;;16.40;51.62
63115;BME280;49208;50.874;6.466;2023-05-24T08:16:38;101291.75;;;17.35;52.54
63115;BME280;49208;50.874;6.466;2023-05-24T08:19:04;101281.84;;;17.36;49.46
63115;BME280;49208;50.874;6.466;2023-05-24T08:21:29;101284.19;;;18.29;51.81
63115;BME280;49208;50.874;6.466;2023-05-24T08:23:56;101270.91;;;18.58;50.33
63115;BME280;49208;50.874;6.466;2023-05-24T08:26:21;101273.66;;;18.41;50.78
63115;BME280;49208;50.874;6.466;2023-05-24T08:28:48;101266.88;;;18.00;50.02
63115;BME280;49208;50.874;6.466;2023-05-24T08:31:13;101283.69;;;17.53;50.67
63115;BME280;49208;50.874;6.466;2023-05-24T08:33:39;101273.78;;;17.71;52.46
63115;BME280;49208;50.874;6.466;2023-05-24T08:36:05;101275.47;;;17.91;51.62
63115;BME280;49208;50.874;6.466;2023-05-24T08:38:31;101269.63;;;17.83;52.35
63115;BME280;49208;50.874;6.466;2023-05-24T08:40:56;101262.94;;;17.72;51.26
63115;BME280;49208;50.874;6.466;2023-05-24T08:43:21;101273.88;;;16.60;49.64
63115;BME280;49208;50.874;6.466;2023-05-24T08:45:48;101269.00;;;16.49;52.11
63115;BME280;49208;50.874;6.466;2023-05-24T08:48:14;101279.63;;;15.94;52.89
63115;BME280;49208;50.874;6.466;2023-05-24T08:50:41;101280.88;;;15.65;56.01
63115;BME280;49208;50.874;6.466;2023-05-24T08:53:07;101281.28;;;15.33;56.38
63115;BME280;49208;50.874;6.466;2023-05-24T08:55:33;101280.81;;;15.02;58.30
63115;BME280;49208;50.874;6.466;2023-05-24T08:58:00;101279.47;;;14.68;59.22
63115;BME280;49208;50.874;6.466;2023-05-24T09:00:25;101281.63;;;14.34;59.82
63115;BME280;49208;50.874;6.466;2023-05-24T09:02:52;101269.34;;;14.05;63.14
63115;BME280;49208;50.874;6.466;2023-05-24T09:05:18;101269.06;;;13.88;62.74
63115;BME280;49208;50.874;6.466;2023-05-24T09:07:47;101273.97;;;13.75;65.01
63115;BME280;49208;50.874;6.466;2023-05-24T09:10:13;101277.44;;;13.79;64.55
63115;BME280;49208;50.874;6.466;2023-05-24T09:12:44;101279.66;;;13.91;64.73
63115;BME280;49208;50.874;6.466;2023-05-24T09:15:10;101280.31;;;14.21;64.54
63115;BME280;49208;50.874;6.466;2023-05-24T09:17:36;101270.44;;;14.47;64.13
63115;BME280;49208;50.874;6.466;2023-05-24T09:20:03;101268.94;;;14.63;61.71
63115;BME280;49208;50.874;6.466;2023-05-24T09:22:31;101274.09;;;14.44;61.02
63115;BME280;49208;50.874;6.466;2023-05-24T09:25:01;101277.72;;;14.20;61.90
63115;BME280;49208;50.874;6.466;2023-05-24T09:27:27;101273.97;;;14.00;60.56
63115;BME280;49208;50.874;6.466;2023-05-24T09:29:54;101275.97;;;13.70;62.18
63115;BME280;49208;50.874;6.466;2023-05-24T09:32:21;101270.75;;;13.65;62.86
63115;BME280;49208;50.874;6.466;2023-05-24T09:34:50;101268.16;;;13.37;63.08
63115;BME280;49208;50.874;6.466;2023-05-24T09:37:18;101264.25;;;13.47;64.22
63115;BME280;49208;50.874;6.466;2023-05-24T09:39:46;101268.22;;;13.61;63.85
63115;BME280;49208;50.874;6.466;2023-05-24T09:42:21;101261.97;;;13.62;63.36
63115;BME280;49208;50.874;6.466;2023-05-24T09:45:00;101259.19;;;13.65;63.43
63115;BME280;49208;50.874;6.466;2023-05-24T09:47:28;101266.56;;;13.58;62.58
63115;BME280;49208;50.874;6.466;2023-05-24T09:49:53;101254.63;;;13.42;62.96
63115;BME280;49208;50.874;6.466;2023-05-24T09:52:20;101253.03;;;13.09;62.77
63115;BME280;49208;50.874;6.466;2023-05-24T09:54:46;101257.91;;;13.23;65.63
63115;BME280;49208;50.874;6.466;2023-05-24T09:57:15;101247.81;;;13.33;67.95
63115;BME280;49208;50.874;6.466;2023-05-24T09:59:41;101254.53;;;13.45;67.56
63115;BME280;49208;50.874;6.466;2023-05-24T10:02:09;101254.22;;;13.54;66.14
63115;BME280;49208;50.874;6.466;2023-05-24T10:04:35;101251.31;;;13.60;64.90
63115;BME280;49208;50.874;6.466;2023-05-24T10:07:01;101253.81;;;13.65;64.89
63115;BME280;49208;50.874;6.466;2023-05-24T10:09:31;101253.06;;;13.61;63.73
63115;BME280;49208;50.874;6.466;2023-05-24T10:12:04;101256.84;;;13.56;63.65
63115;BME280;49208;50.874;6.466;2023-05-24T10:14:37;101249.72;;;13.54;64.27
63115;BME280;49208;50.874;6.466;2023-05-24T10:17:03;101248.84;;;13.54;65.17
63115;BME280;49208;50.874;6.466;2023-05-24T10:19:30;101252.56;;;13.50;64.32
63115;BME280;49208;50.874;6.466;2023-05-24T10:21:56;101249.41;;;13.64;64.78
63115;BME280;49208;50.874;6.466;2023-05-24T10:24:24;101253.34;;;13.79;62.97
63115;BME280;49208;50.874;6.466;2023-05-24T10:26:51;101258.13;;;13.94;62.42
63115;BME280;49208;50.874;6.466;2023-05-24T10:29:50;101249.44;;;13.87;61.03
63115;BME280;49208;50.874;6.466;2023-05-24T10:32:20;101248.19;;;13.98;63.33
63115;BME280;49208;50.874;6.466;2023-05-24T10:34:46;101252.22;;;14.09;62.71
63115;BME280;49208;50.874;6.466;2023-05-24T10:37:12;101249.47;;;14.11;62.04
63115;BME280;49208;50.874;6.466;2023-05-24T10:39:40;101245.09;;;14.08;62.61
63115;BME280;49208;50.874;6.466;2023-05-24T10:42:06;101251.47;;;14.06;62.33
63115;BME280;49208;50.874;6.466;2023-05-24T10:44:31;101258.75;;;14.01;62.85
63115;BME280;49208;50.874;6.466;2023-05-24T10:47:10;101258.13;;;13.94;63.54
63115;BME280;49208;50.874;6.466;2023-05-24T10:49:50;101252.53;;;13.77;62.19
63115;BME280;49208;50.874;6.466;2023-05-24T10:52:17;101249.81;;;13.78;62.37
63115;BME280;49208;50.874;6.466;2023-05-24T10:55:02;101251.97;;;13.92;63.14
63115;BME280;49208;50.874;6.466;2023-05-24T10:57:28;101250.00;;;13.97;61.19
63115;BME280;49208;50.874;6.466;2023-05-24T10:59:56;101253.44;;;13.75;61.36
63115;BME280;49208;50.874;6.466;2023-05-24T11:02:26;101241.56;;;13.84;62.66
63115;BME280;49208;50.874;6.466;2023-05-24T11:04:52;101242.50;;;13.82;62.24
63115;BME280;49208;50.874;6.466;2023-05-24T11:07:18;101238.88;;;14.08;62.28
63115;BME280;49208;50.874;6.466;2023-05-24T11:09:46;101243.72;;;14.22;62.01
63115;BME280;49208;50.874;6.466;2023-05-24T11:12:17;101235.16;;;14.35;60.83
63115;BME280;49208;50.874;6.466;2023-05-24T11:14:51;101237.50;;;14.45;61.85
63115;BME280;49208;50.874;6.466;2023-05-24T11:17:21;101244.22;;;14.55;60.60
63115;BME280;49208;50.874;6.466;2023-05-24T11:19:49;101241.91;;;14.69;62.19
63115;BME280;49208;50.874;6.466;2023-05-24T11:22:16;101241.34;;;14.61;63.24
63115;BME280;49208;50.874;6.466;2023-05-24T11:24:44;101243.56;;;14.48;63.56
63115;BME280;49208;50.874;6.466;2023-05-24T11:27:13;101235.81;;;14.42;64.50
63115;BME280;49208;50.874;6.466;2023-05-24T11:29:47;101238.78;;;14.58;66.11
63115;BME280;49208;50.874;6.466;2023-05-24T11:32:17;101236.84;;;15.06;67.65
63115;BME280;49208;50.874;6.466;2023-05-24T11:34:45;101229.50;;;15.52;64.06
63115;BME280;49208;50.874;6.466;2023-05-24T11:37:11;101226.38;;;15.83;60.43
63115;BME280;49208;50.874;6.466;2023-05-24T11:39:37;101223.66;;;16.23;61.20
63115;BME280;49208;50.874;6.466;2023-05-24T11:42:03;101225.28;;;16.46;58.78
63115;BME280;49208;50.874;6.466;2023-05-24T11:44:31;101219.38;;;16.75;59.59
63115;BME280;49208;50.874;6.466;2023-05-24T11:46:59;101217.88;;;17.24;59.66
63115;BME280;49208;50.874;6.466;2023-05-24T11:49:25;101207.25;;;17.73;58.57
63115;BME280;49208;50.874;6.466;2023-05-24T11:51:56;101210.91;;;18.05;56.70
63115;BME280;49208;50.874;6.466;2023-05-24T11:54:26;101209.41;;;18.33;56.54
63115;BME280;49208;50.874;6.466;2023-05-24T11:56:52;101204.97;;;18.16;53.03
63115;BME280;49208;50.874;6.466;2023-05-24T11:59:22;101202.09;;;18.19;53.90
63115;BME280;49208;50.874;6.466;2023-05-24T12:01:55;101201.72;;;17.93;52.50
63115;BME280;49208;50.874;6.466;2023-05-24T12:04:22;101198.19;;;17.58;53.08
63115;BME280;49208;50.874;6.466;2023-05-24T12:06:47;101205.13;;;17.45;54.53
63115;BME280;49208;50.874;6.466;2023-05-24T12:09:13;101208.81;;;17.44;55.93
63115;BME280;49208;50.874;6.466;2023-05-24T12:11:45;101206.91;;;17.46;53.44
63115;BME280;49208;50.874;6.466;2023-05-24T12:14:15;101197.38;;;17.38;52.39
63115;BME280;49208;50.874;6.466;2023-05-24T12:16:42;101197.72;;;17.50;51.85
63115;BME280;49208;50.874;6.466;2023-05-24T12:19:12;101201.91;;;17.38;51.95
63115;BME280;49208;50.874;6.466;2023-05-24T12:21:40;101202.56;;;17.43;51.64
63115;BME280;49208;50.874;6.466;2023-05-24T12:24:13;101184.31;;;17.48;51.00
63115;BME280;49208;50.874;6.466;2023-05-24T12:26:41;101186.13;;;17.65;50.87
63115;BME280;49208;50.874;6.466;2023-05-24T12:29:08;101183.84;;;17.40;48.59
63115;BME280;49208;50.874;6.466;2023-05-24T12:31:34;101188.16;;;17.27;49.61
63115;BME280;49208;50.874;6.466;2023-05-24T12:33:59;101181.09;;;17.24;52.42
63115;BME280;49208;50.874;6.466;2023-05-24T12:36:27;101182.13;;;17.04;52.18
63115;BME280;49208;50.874;6.466;2023-05-24T12:38:56;101184.09;;;16.83;53.47
63115;BME280;49208;50.874;6.466;2023-05-24T12:41:22;101178.78;;;16.25;51.41
63115;BME280;49208;50.874;6.466;2023-05-24T12:43:50;101186.78;;;15.88;53.69
63115;BME280;49208;50.874;6.466;2023-05-24T12:46:16;101190.31;;;15.68;55.78
63115;BME280;49208;50.874;6.466;2023-05-24T12:48:41;101187.22;;;15.38;55.17
63115;BME280;49208;50.874;6.466;2023-05-24T12:51:07;101187.50;;;15.10;55.31
63115;BME280;49208;50.874;6.466;2023-05-24T12:53:32;101189.25;;;14.90;55.61
63115;BME280;49208;50.874;6.466;2023-05-24T12:55:58;101197.91;;;14.75;55.85
63115;BME280;49208;50.874;6.466;2023-05-24T12:58:25;101196.94;;;14.54;56.38
63115;BME280;49208;50.874;6.466;2023-05-24T13:00:50;101182.16;;;14.44;56.11
63115;BME280;49208;50.874;6.466;2023-05-24T13:03:16;101190.38;;;14.39;56.07
63115;BME280;49208;50.874;6.466;2023-05-24T13:05:42;101191.66;;;14.29;58.72
63115;BME280;49208;50.874;6.466;2023-05-24T13:08:08;101191.09;;;14.21;56.40
63115;BME280;49208;50.874;6.466;2023-05-24T13:10:33;101177.41;;;14.28;57.62
63115;BME280;49208;50.874;6.466;2023-05-24T13:12:59;101189.75;;;14.32;57.05
63115;BME280;49208;50.874;6.466;2023-05-24T13:15:24;101192.19;;;14.39;58.25
63115;BME280;49208;50.874;6.466;2023-05-24T13:17:51;101186.88;;;14.37;59.14
63115;BME280;49208;50.874;6.466;2023-05-24T13:20:18;101187.97;;;14.09;55.95
63115;BME280;49208;50.874;6.466;2023-05-24T13:22:46;101190.56;;;14.11;58.01
63115;BME280;49208;50.874;6.466;2023-05-24T13:25:12;101192.16;;;14.17;58.43
63115;BME280;49208;50.874;6.466;2023-05-24T13:27:38;101189.22;;;14.23;57.37
63115;BME280;49208;50.874;6.466;2023-05-24T13:30:03;101188.69;;;14.37;57.28
63115;BME280;49208;50.874;6.466;2023-05-24T13:32:30;101186.59;;;14.45;57.32
63115;BME280;49208;50.874;6.466;2023-05-24T13:34:55;101189.09;;;14.49;57.56
63115;BME280;49208;50.874;6.466;2023-05-24T13:37:22;101185.69;;;14.68;58.29
63115;BME280;49208;50.874;6.466;2023-05-24T13:39:47;101173.84;;;14.73;56.49
63115;BME280;49208;50.874;6.466;2023-05-24T13:42:14;101171.84;;;14.79;59.53
63115;BME280;49208;50.874;6.466;2023-05-24T13:44:39;101177.09;;;14.82;55.79
63115;BME280;49208;50.874;6.466;2023-05-24T13:47:05;101175.38;;;14.79;55.80
63115;BME280;49208;50.874;6.466;2023-05-24T13:49:30;101172.16;;;14.93;54.90
63115;BME280;49208;50.874;6.466;2023-05-24T13:51:55;101165.97;;;14.91;53.85
63115;BME280;49208;50.874;6.466;2023-05-24T13:54:21;101166.25;;;15.05;55.36
63115;BME280;49208;50.874;6.466;2023-05-24T13:56:47;101174.06;;;15.32;55.17
63115;BME280;49208;50.874;6.466;2023-05-24T13:59:14;101171.16;;;15.78;54.96
63115;BME280;49208;50.874;6.466;2023-05-24T14:01:39;101171.88;;;15.81;53.91
63115;BME280;49208;50.874;6.466;2023-05-24T14:04:05;101173.19;;;15.91;53.52
63115;BME280;49208;50.874;6.466;2023-05-24T14:06:31;101174.69;;;16.17;52.42
63115;BME280;49208;50.874;6.466;2023-05-24T14:08:58;101173.81;;;16.17;52.56
63115;BME280;49208;50.874;6.466;2023-05-24T14:11:23;101166.66;;;16.35;52.88
63115;BME280;49208;50.874;6.466;2023-05-24T14:13:49;101178.00;;;16.61;52.19
63115;BME280;49208;50.874;6.466;2023-05-24T14:16:15;101170.50;;;16.67;52.36
63115;BME280;49208;50.874;6.466;2023-05-24T14:18:41;101175.69;;;16.70;51.04
63115;BME280;49208;50.874;6.466;2023-05-24T14:21:07;101176.53;;;16.53;50.59
63115;BME280;49208;50.874;6.466;2023-05-24T14:23:32;101172.19;;;16.32;50.59
63115;BME280;49208;50.874;6.466;2023-05-24T14:25:58;101168.09;;;16.61;52.03
63115;BME280;49208;50.874;6.466;2023-05-24T14:28:23;101177.09;;;16.79;53.04
63115;BME280;49208;50.874;6.466;2023-05-24T14:30:49;101167.88;;;17.02;51.75
63115;BME280;49208;50.874;6.466;2023-05-24T14:33:15;101161.94;;;17.13;50.57
63115;BME280;49208;50.874;6.466;2023-05-24T14:35:40;101168.91;;;17.17;51.00
63115;BME280;49208;50.874;6.466;2023-05-24T14:38:07;101159.41;;;17.27;49.55
63115;BME280;49208;50.874;6.466;2023-05-24T14:40:33;101158.03;;;17.53;50.23
63115;BME280;49208;50.874;6.466;2023-05-24T14:43:01;101160.84;;;17.85;49.34
63115;BME280;49208;50.874;6.466;2023-05-24T14:45:29;101161.06;;;17.47;49.58
63115;BME280;49208;50.874;6.466;2023-05-24T14:47:55;101162.41;;;17.72;47.89
63115;BME280;49208;50.874;6.466;2023-05-24T14:50:21;101147.72;;;17.95;50.07
63115;BME280;49208;50.874;6.466;2023-05-24T14:52:47;101156.03;;;17.74;47.99
63115;BME280;49208;50.874;6.466;2023-05-24T14:55:12;101156.94;;;17.40;49.46
63115;BME280;49208;50.874;6.466;2023-05-24T14:57:38;101151.44;;;17.08;49.17
63115;BME280;49208;50.874;6.466;2023-05-24T15:00:04;101146.50;;;16.82;49.63
63115;BME280;49208;50.874;6.466;2023-05-24T15:02:31;101161.38;;;16.70;51.45
63115;BME280;49208;50.874;6.466;2023-05-24T15:04:58;101152.22;;;16.56;51.59
63115;BME280;49208;50.874;6.466;2023-05-24T15:07:24;101154.19;;;16.34;49.85
63115;BME280;49208;50.874;6.466;2023-05-24T15:09:50;101158.72;;;16.14;51.87
63115;BME280;49208;50.874;6.466;2023-05-24T15:12:16;101154.22;;;15.96;50.43
63115;BME280;49208;50.874;6.466;2023-05-24T15:14:41;101159.34;;;15.82;52.47
63115;BME280;49208;50.874;6.466;2023-05-24T15:17:08;101154.78;;;15.63;52.13
63115;BME280;49208;50.874;6.466;2023-05-24T15:19:33;101158.34;;;15.43;52.89
63115;BME280;49208;50.874;6.466;2023-05-24T15:21:59;101153.94;;;15.42;55.12
63115;BME280;49208;50.874;6.466;2023-05-24T15:24:24;101153.78;;;15.45;54.60
63115;BME280;49208;50.874;6.466;2023-05-24T15:26:50;101153.94;;;15.42;54.15
63115;BME280;49208;50.874;6.466;2023-05-24T15:29:15;101156.34;;;15.48;57.34
63115;BME280;49208;50.874;6.466;2023-05-24T15:31:41;101146.88;;;15.40;54.34
63115;BME280;49208;50.874;6.466;2023-05-24T15:34:06;101149.66;;;15.38;54.23
63115;BME280;49208;50.874;6.466;2023-05-24T15:36:32;101146.50;;;15.28;55.23
63115;BME280;49208;50.874;6.466;2023-05-24T15:38:57;101147.44;;;15.27;55.41
63115;BME280;49208;50.874;6.466;2023-05-24T15:41:23;101148.31;;;15.28;55.47
63115;BME280;49208;50.874;6.466;2023-05-24T15:43:51;101154.41;;;15.11;55.69
63115;BME280;49208;50.874;6.466;2023-05-24T15:46:19;101155.25;;;14.91;54.71
63115;BME280;49208;50.874;6.466;2023-05-24T15:48:45;101152.50;;;14.92;56.41
63115;BME280;49208;50.874;6.466;2023-05-24T15:51:10;101148.78;;;14.97;55.64
63115;BME280;49208;50.874;6.466;2023-05-24T15:53:36;101149.38;;;15.03;56.66
63115;BME280;49208;50.874;6.466;2023-05-24T15:56:01;101153.59;;;15.09;55.57
63115;BME280;49208;50.874;6.466;2023-05-24T15:58:26;101151.03;;;15.06;55.44
63115;BME280;49208;50.874;6.466;2023-05-24T16:00:52;101153.25;;;15.16;55.34
63115;BME280;49208;50.874;6.466;2023-05-24T16:03:18;101139.13;;;15.13;55.73
63115;BME280;49208;50.874;6.466;2023-05-24T16:05:44;101143.28;;;15.20;56.38
63115;BME280;49208;50.874;6.466;2023-05-24T16:08:13;101142.47;;;15.18;54.59
63115;BME280;49208;50.874;6.466;2023-05-24T16:10:40;101135.81;;;15.27;56.04
63115;BME280;49208;50.874;6.466;2023-05-24T16:13:05;101138.59;;;15.25;56.03
63115;BME280;49208;50.874;6.466;2023-05-24T16:15:30;101138.97;;;15.36;55.61
63115;BME280;49208;50.874;6.466;2023-05-24T16:17:58;101135.56;;;15.33;56.38
63115;BME280;49208;50.874;6.466;2023-05-24T16:20:24;101134.97;;;15.26;56.17
63115;BME280;49208;50.874;6.466;2023-05-24T16:22:49;101137.44;;;15.31;56.24
63115;BME280;49208;50.874;6.466;2023-05-24T16:25:15;101131.34;;;15.27;56.64
63115;BME280;49208;50.874;6.466;2023-05-24T16:27:40;101132.88;;;15.33;57.78
63115;BME280;49208;50.874;6.466;2023-05-24T16:30:06;101124.16;;;15.28;55.33
63115;BME280;49208;50.874;6.466;2023-05-24T16:32:31;101132.47;;;15.22;55.92
63115;BME280;49208;50.874;6.466;2023-05-24T16:34:57;101128.56;;;15.08;55.88
63115;BME280;49208;50.874;6.466;2023-05-24T16:37:22;101125.63;;;15.14;56.60
63115;BME280;49208;50.874;6.466;2023-05-24T16:39:48;101124.03;;;15.10;57.26
63115;BME280;49208;50.874;6.466;2023-05-24T16:42:13;101126.59;;;15.13;57.80
63115;BME280;49208;50.874;6.466;2023-05-24T16:44:39;101132.59;;;15.19;58.85
63115;BME280;49208;50.874;6.466;2023-05-24T16:47:05;101130.13;;;15.14;58.80
63115;BME280;49208;50.874;6.466;2023-05-24T16:49:30;101126.00;;;15.07;58.09
63115;BME280;49208;50.874;6.466;2023-05-24T16:51:56;101120.09;;;14.99;56.66
63115;BME280;49208;50.874;6.466;2023-05-24T16:54:22;101124.63;;;14.76;56.68
63115;BME280;49208;50.874;6.466;2023-05-24T16:56:47;101121.44;;;14.66;58.13
63115;BME280;49208;50.874;6.466;2023-05-24T16:59:13;101118.44;;;14.74;58.87
63115;BME280;49208;50.874;6.466;2023-05-24T17:01:38;101124.31;;;14.62;57.52
63115;BME280;49208;50.874;6.466;2023-05-24T17:04:04;101127.91;;;14.61;58.32
63115;BME280;49208;50.874;6.466;2023-05-24T17:06:29;101134.34;;;14.57;57.09
63115;BME280;49208;50.874;6.466;2023-05-24T17:08:55;101128.13;;;14.56;57.72
63115;BME280;49208;50.874;6.466;2023-05-24T17:11:20;101143.47;;;14.51;57.62
63115;BME280;49208;50.874;6.466;2023-05-24T17:13:47;101139.38;;;14.42;56.64
63115;BME280;49208;50.874;6.466;2023-05-24T17:16:13;101141.88;;;14.47;57.79
63115;BME280;49208;50.874;6.466;2023-05-24T17:18:38;101133.94;;;14.44;58.91
63115;BME280;49208;50.874;6.466;2023-05-24T17:21:04;101138.69;;;14.37;58.17
63115;BME280;49208;50.874;6.466;2023-05-24T17:23:34;101139.47;;;14.39;58.65
63115;BME280;49208;50.874;6.466;2023-05-24T17:26:01;101144.41;;;14.28;58.25
63115;BME280;49208;50.874;6.466;2023-05-24T17:28:27;101136.88;;;14.15;59.57
63115;BME280;49208;50.874;6.466;2023-05-24T17:30:57;101146.81;;;14.12;59.41
63115;BME280;49208;50.874;6.466;2023-05-24T17:33:24;101152.28;;;14.09;60.04
63115;BME280;49208;50.874;6.466;2023-05-24T17:35:50;101150.59;;;14.06;60.42
63115;BME280;49208;50.874;6.466;2023-05-24T17:38:16;101152.78;;;13.97;60.18
63115;BME280;49208;50.874;6.466;2023-05-24T17:40:41;101152.78;;;13.97;60.79
63115;BME280;49208;50.874;6.466;2023-05-24T17:43:09;101144.84;;;13.93;60.47
63115;BME280;49208;50.874;6.466;2023-05-24T17:45:34;101142.16;;;13.93;61.16
63115;BME280;49208;50.874;6.466;2023-05-24T17:47:59;101143.13;;;13.92;61.72
63115;BME280;49208;50.874;6.466;2023-05-24T17:50:25;101138.72;;;13.90;61.22
63115;BME280;49208;50.874;6.466;2023-05-24T17:52:50;101139.72;;;13.87;60.82
63115;BME280;49208;50.874;6.466;2023-05-24T17:55:16;101140.59;;;13.88;61.53
63115;BME280;49208;50.874;6.466;2023-05-24T17:57:41;101142.41;;;13.87;60.98
63115;BME280;49208;50.874;6.466;2023-05-24T18:00:07;101140.91;;;13.80;60.65
63115;BME280;49208;50.874;6.466;2023-05-24T18:02:32;101136.50;;;13.78;60.25
63115;BME280;49208;50.874;6.466;2023-05-24T18:04:58;101141.00;;;13.77;61.52
63115;BME280;49208;50.874;6.466;2023-05-24T18:07:23;101147.34;;;13.74;60.49
63115;BME280;49208;50.874;6.466;2023-05-24T18:09:49;101140.38;;;13.70;59.98
63115;BME280;49208;50.874;6.466;2023-05-24T18:12:15;101146.75;;;13.66;60.42
63115;BME280;49208;50.874;6.466;2023-05-24T18:14:40;101144.94;;;13.67;61.30
63115;BME280;49208;50.874;6.466;2023-05-24T18:17:08;101153.09;;;13.64;60.84
63115;BME280;49208;50.874;6.466;2023-05-24T18:19:33;101153.16;;;13.62;61.51
63115;BME280;49208;50.874;6.466;2023-05-24T18:21:59;101154.06;;;13.61;61.99
63115;BME280;49208;50.874;6.466;2023-05-24T18:24:24;101148.81;;;13.60;62.33
63115;BME280;49208;50.874;6.466;2023-05-24T18:26:50;101145.41;;;13.54;62.14
63115;BME280;49208;50.874;6.466;2023-05-24T18:29:15;101150.75;;;13.54;62.73
63115;BME280;49208;50.874;6.466;2023-05-24T18:31:41;101152.75;;;13.49;63.12
63115;BME280;49208;50.874;6.466;2023-05-24T18:34:06;101150.47;;;13.39;63.16
63115;BME280;49208;50.874;6.466;2023-05-24T18:36:31;101149.69;;;13.35;63.42
63115;BME280;49208;50.874;6.466;2023-05-24T18:38:57;101148.19;;;13.26;63.81
63115;BME280;49208;50.874;6.466;2023-05-24T18:41:22;101152.00;;;13.19;63.18
63115;BME280;49208;50.874;6.466;2023-05-24T18:43:48;101151.22;;;13.15;64.15
63115;BME280;49208;50.874;6.466;2023-05-24T18:46:14;101156.72;;;13.11;64.48
63115;BME280;49208;50.874;6.466;2023-05-24T18:48:40;101159.59;;;13.05;64.73